Frances, Kentucky
Current Conditions -  °F | °C
As of 12:35 AM on Tuesday 21 Oct 2014 (Local Time) from K5M9 Reporting Station
Clear Clear  
Wind Chill: 52°   Ceiling: Unl
Heat Index: 52°   Visibility: 10mi
Dew Point: 47°   Wind: 3mph
Humidity: 82%   Direction: 310°NW
Pressure: 30.01"   Gusts: NA
Location:  37.3359°N, 88.1049°W
Report Text: K5M9 210535Z AUTO 31003KT 10SM CLR 11/08 A3001 RMK AO2 T01110081
Loading
Personal Weather Stations






























Interactive Weather Map
Tropical Storm Tracking
New forecast layout! Learn more

10-Day Weather Forecast

Advertisements
Track Severe Weather on mobile